Time;durP1;ratioP1;P1;durP2;ratioP2;P2;SDS_P1;SDS_P2;PMS_P1;PMS_P2;Temp;Humidity;BMP_temperature;BMP_pressure;BME280_temperature;BME280_humidity;BME280_pressure;Samples;Min_cycle;Max_cycle;Signal;HPM_P1;HPM_P2
2023/08/08 00:00:06;;;;;;;8.20;4.57;;;;;;;13.38;83.20;98256.97;5007106;28;20057;-78
2023/08/08 00:02:32;;;;;;;6.28;4.53;;;;;;;13.30;82.94;98254.78;5026518;28;20127;-78
2023/08/08 00:04:57;;;;;;;9.70;5.18;;;;;;;13.12;83.71;98240.59;5040407;28;20463;-78
2023/08/08 00:07:23;;;;;;;7.32;4.45;;;;;;;13.28;84.01;98268.53;5026623;28;20038;-78
2023/08/08 00:09:48;;;;;;;8.90;5.00;;;;;;;13.06;84.08;98221.88;5011159;28;20101;-79
2023/08/08 00:12:14;;;;;;;7.10;5.13;;;;;;;13.22;83.83;98253.38;5001118;28;20116;-78
2023/08/08 00:14:39;;;;;;;7.35;5.20;;;;;;;13.23;83.39;98229.84;5023349;28;20036;-78
2023/08/08 00:17:05;;;;;;;9.90;4.90;;;;;;;13.21;83.34;98224.69;5011135;28;20041;-79
2023/08/08 00:19:30;;;;;;;7.03;5.07;;;;;;;13.13;83.68;98206.25;5016103;28;20120;-80
2023/08/08 00:21:55;;;;;;;9.48;5.15;;;;;;;13.21;83.76;98224.69;4997346;28;20096;-81
2023/08/08 00:24:21;;;;;;;6.35;4.70;;;;;;;13.21;84.04;98230.09;5017359;28;20030;-78
2023/08/08 00:26:46;;;;;;;11.10;4.93;;;;;;;13.15;83.58;98239.25;5009776;28;20094;-78
2023/08/08 00:29:12;;;;;;;5.90;4.93;;;;;;;13.06;83.90;98221.88;5003906;28;20112;-78
2023/08/08 00:31:37;;;;;;;6.53;5.05;;;;;;;13.26;83.73;98240.94;5024449;28;20144;-79
2023/08/08 00:34:03;;;;;;;9.38;4.95;;;;;;;13.05;83.74;98214.81;5034745;28;20025;-76
2023/08/08 00:36:28;;;;;;;6.88;4.70;;;;;;;12.98;83.96;98208.81;5035163;28;20535;-78
2023/08/08 00:38:54;;;;;;;10.07;4.88;;;;;;;13.13;83.95;98249.53;4999222;28;20368;-78
2023/08/08 00:41:19;;;;;;;7.07;5.15;;;;;;;12.81;83.64;98191.94;4996322;28;20036;-77
2023/08/08 00:43:45;;;;;;;8.73;5.40;;;;;;;12.91;84.67;98219.03;5018042;28;20026;-78
2023/08/08 00:46:10;;;;;;;7.18;4.82;;;;;;;12.89;84.01;98210.38;5000918;28;20125;-77
2023/08/08 00:48:36;;;;;;;6.25;5.10;;;;;;;12.82;83.77;98218.69;5004264;28;20071;-77
2023/08/08 00:51:02;;;;;;;9.63;4.85;;;;;;;12.87;83.81;98212.50;4994778;28;20033;-77
2023/08/08 00:53:31;;;;;;;7.25;4.65;;;;;;;12.97;83.97;98224.25;5021250;28;20036;-77
2023/08/08 00:55:58;;;;;;;7.72;4.90;;;;;;;12.96;83.91;98238.81;5023342;28;20037;-77
2023/08/08 00:58:24;;;;;;;7.05;5.05;;;;;;;12.49;84.35;98173.84;4998402;28;20125;-79
2023/08/08 01:00:49;;;;;;;11.05;4.85;;;;;;;12.73;84.36;98206.72;5005652;28;20042;-77
2023/08/08 01:03:14;;;;;;;6.20;5.45;;;;;;;12.81;84.54;98222.47;5025255;28;20029;-77
2023/08/08 01:05:49;;;;;;;5.88;5.00;;;;;;;12.61;85.51;98210.66;5049663;28;20033;-78
2023/08/08 01:08:20;;;;;;;8.27;5.37;;;;;;;12.78;85.16;98224.88;5001886;28;20039;-78
2023/08/08 01:10:46;;;;;;;8.20;5.82;;;;;;;12.64;85.28;98229.06;5011262;28;20286;-76
2023/08/08 01:13:17;;;;;;;9.82;5.25;;;;;;;12.68;85.38;98219.38;5038839;28;20021;-76
2023/08/08 01:15:42;;;;;;;7.13;5.53;;;;;;;12.83;85.50;98238.44;4988628;28;20033;-76
2023/08/08 01:18:09;;;;;;;6.88;5.32;;;;;;;12.58;85.69;98197.69;5012083;28;20502;-76
2023/08/08 01:20:35;;;;;;;7.72;5.25;;;;;;;12.93;85.66;98233.09;5011435;28;20041;-76
2023/08/08 01:23:04;;;;;;;9.43;5.45;;;;;;;13.02;85.27;98236.97;5037325;28;20124;-76
2023/08/08 01:25:30;;;;;;;7.63;5.40;;;;;;;12.79;85.25;98199.50;5018045;28;20046;-76
2023/08/08 01:27:55;;;;;;;8.23;5.50;;;;;;;13.03;85.39;98236.72;5021170;28;20027;-76
2023/08/08 01:30:20;;;;;;;7.00;4.97;;;;;;;12.88;85.10;98208.75;5004731;28;20083;-77
2023/08/08 01:32:46;;;;;;;6.55;5.18;;;;;;;13.00;84.93;98222.88;5010862;28;20017;-77
2023/08/08 01:35:11;;;;;;;10.23;5.80;;;;;;;13.00;84.78;98228.28;5010608;28;20045;-76
2023/08/08 01:37:44;;;;;;;7.68;6.07;;;;;;;12.83;84.75;98184.38;5011129;28;20026;-76
2023/08/08 01:40:10;;;;;;;8.27;5.35;;;;;;;13.02;84.47;98231.56;5027558;28;20552;-77
2023/08/08 01:42:36;;;;;;;6.80;5.22;;;;;;;12.98;84.32;98206.09;5014138;28;20052;-77
2023/08/08 01:45:02;;;;;;;6.97;5.65;;;;;;;13.16;84.57;98233.56;5027394;28;20620;-77
2023/08/08 01:47:27;;;;;;;7.50;5.93;;;;;;;13.06;84.75;98216.47;4997807;28;20036;-77
2023/08/08 01:49:53;;;;;;;7.28;5.57;;;;;;;13.05;84.08;98209.41;5027356;28;20067;-77
2023/08/08 01:52:18;;;;;;;8.07;5.50;;;;;;;12.96;84.22;98200.16;5014150;28;20024;-77
2023/08/08 01:54:44;;;;;;;6.35;5.70;;;;;;;13.13;84.55;98222.47;5010880;28;20402;-77
2023/08/08 01:57:10;;;;;;;8.15;6.43;;;;;;;13.13;84.59;98233.28;5014217;28;20017;-77
2023/08/08 01:59:36;;;;;;;6.47;5.75;;;;;;;13.11;84.55;98233.56;5027353;28;20040;-77
2023/08/08 02:02:01;;;;;;;7.85;6.00;;;;;;;12.95;85.08;98209.34;5017582;28;20087;-77
2023/08/08 02:04:27;;;;;;;6.70;5.40;;;;;;;12.94;84.62;98215.81;5004524;28;20543;-77
2023/08/08 02:06:53;;;;;;;6.82;5.75;;;;;;;12.81;85.54;98197.34;5028267;28;20120;-77
2023/08/08 02:09:18;;;;;;;7.88;5.90;;;;;;;12.87;85.16;98215.22;4994598;28;20135;-77
2023/08/08 02:11:43;;;;;;;8.95;5.70;;;;;;;12.88;85.25;98206.06;5030436;28;20030;-77
2023/08/08 02:14:09;;;;;;;8.23;5.50;;;;;;;12.92;85.41;98212.56;5013906;28;20124;-77
2023/08/08 02:16:34;;;;;;;6.57;5.97;;;;;;;13.01;85.29;98214.53;5011828;28;20419;-78
2023/08/08 02:19:00;;;;;;;6.40;5.60;;;;;;;12.97;85.74;98218.00;4993472;28;20400;-78
2023/08/08 02:21:26;;;;;;;9.77;5.80;;;;;;;13.01;85.09;98216.41;5007699;28;20480;-77
2023/08/08 02:23:51;;;;;;;6.18;5.45;;;;;;;12.96;85.06;98217.19;5011602;28;20029;-77
2023/08/08 02:26:17;;;;;;;7.88;5.75;;;;;;;12.99;85.23;98222.09;5014914;28;20436;-77
2023/08/08 02:28:43;;;;;;;7.93;5.53;;;;;;;12.88;84.75;98187.91;5007341;28;20060;-77
2023/08/08 02:31:08;;;;;;;7.10;6.18;;;;;;;12.95;85.41;98220.16;4997751;28;20025;-78
2023/08/08 02:33:34;;;;;;;6.80;5.40;;;;;;;12.84;84.97;98191.41;5011595;28;20064;-78
2023/08/08 02:36:00;;;;;;;7.75;5.78;;;;;;;12.72;84.97;98172.66;5000211;28;20121;-78
2023/08/08 02:38:26;;;;;;;7.93;5.72;;;;;;;12.72;85.08;98183.47;4994746;28;20029;-78
2023/08/08 02:40:53;;;;;;;9.20;6.20;;;;;;;12.89;85.09;98213.06;4999666;28;20053;-78
2023/08/08 02:43:18;;;;;;;7.55;6.28;;;;;;;12.40;84.82;98137.56;4995419;28;20071;-77
2023/08/08 02:45:44;;;;;;;7.72;6.20;;;;;;;12.50;85.54;98174.66;4989225;28;20475;-78
2023/08/08 02:48:09;;;;;;;8.25;6.15;;;;;;;12.64;86.41;98212.88;5054329;28;20091;-78
2023/08/08 02:50:34;;;;;;;9.82;7.28;;;;;;;12.45;86.61;98205.16;5011848;28;20095;-78
2023/08/08 02:53:00;;;;;;;11.60;6.88;;;;;;;12.52;85.69;98209.50;5013215;28;20394;-78
2023/08/08 02:55:32;;;;;;;10.40;6.63;;;;;;;12.57;86.14;98204.16;5001416;28;20056;-77
2023/08/08 02:57:57;;;;;;;7.30;6.40;;;;;;;12.60;86.21;98223.38;4998362;28;20470;-78
2023/08/08 03:00:23;;;;;;;8.95;6.43;;;;;;;12.44;86.69;98214.31;4984206;28;20026;-79
2023/08/08 03:05:19;;;;;;;10.02;7.28;;;;;;;12.45;86.48;98231.31;5011522;28;20050;-78
2023/08/08 03:07:44;;;;;;;9.77;7.75;;;;;;;12.40;85.94;98204.28;4997291;28;20052;-78
2023/08/08 03:10:12;;;;;;;10.40;7.97;;;;;;;12.39;86.77;98206.16;4987980;28;20491;-78
2023/08/08 03:12:39;;;;;;;7.90;7.18;;;;;;;12.52;85.96;98217.63;4984127;28;20117;-78
2023/08/08 03:15:06;;;;;;;9.02;8.15;;;;;;;12.46;86.00;98204.06;5011831;28;20030;-77
2023/08/08 03:17:32;;;;;;;8.63;7.47;;;;;;;12.41;86.94;98197.81;4978326;28;20034;-77
2023/08/08 03:19:59;;;;;;;8.85;7.85;;;;;;;12.45;86.04;98205.16;4975395;28;20022;-78
2023/08/08 03:22:25;;;;;;;10.10;7.88;;;;;;;12.54;86.90;98223.56;4978859;28;20034;-78
2023/08/08 03:24:50;;;;;;;8.23;7.40;;;;;;;12.44;87.45;98208.91;4975423;28;20026;-78
2023/08/08 03:27:15;;;;;;;8.60;7.68;;;;;;;12.54;87.01;98219.00;4980211;28;20540;-78
2023/08/08 03:29:42;;;;;;;8.77;7.63;;;;;;;12.43;86.87;98196.47;4961937;28;20029;-77
2023/08/08 03:32:07;;;;;;;8.90;8.05;;;;;;;12.55;87.01;98209.00;4962822;28;20029;-77
2023/08/08 03:34:32;;;;;;;10.02;8.27;;;;;;;12.68;87.46;98222.06;4975963;28;20029;-78
2023/08/08 03:36:59;;;;;;;12.13;8.40;;;;;;;12.62;87.43;98204.19;4978314;28;20080;-77
2023/08/08 03:39:25;;;;;;;9.82;8.02;;;;;;;12.54;87.54;98185.75;4961528;28;20414;-77
2023/08/08 03:41:50;;;;;;;10.27;8.48;;;;;;;12.75;87.38;98217.28;4977262;28;20034;-77
2023/08/08 03:44:15;;;;;;;9.20;8.35;;;;;;;12.66;87.17;98205.31;4976742;28;20033;-76
2023/08/08 03:46:41;;;;;;;10.45;8.10;;;;;;;12.74;87.11;98219.16;4977040;28;20029;-76
2023/08/08 03:49:06;;;;;;;12.55;8.13;;;;;;;12.59;87.41;98188.50;4963925;28;20060;-76
2023/08/08 03:51:32;;;;;;;10.43;8.45;;;;;;;12.75;87.31;98225.38;4980294;28;20069;-75
2023/08/08 03:53:57;;;;;;;12.48;7.88;;;;;;;12.78;86.86;98208.66;4964117;28;20461;-77
2023/08/08 03:56:23;;;;;;;8.88;7.47;;;;;;;12.70;87.09;98217.22;4980412;28;20062;-77
2023/08/08 03:58:48;;;;;;;8.88;7.78;;;;;;;12.71;87.06;98218.88;4977114;28;20073;-77
2023/08/08 04:01:14;;;;;;;10.73;8.27;;;;;;;12.68;87.14;98213.97;4980226;28;20034;-77
2023/08/08 04:03:39;;;;;;;11.73;8.68;;;;;;;12.46;87.36;98179.75;5013897;28;20085;-77
2023/08/08 04:06:05;;;;;;;10.90;8.15;;;;;;;12.75;87.39;98210.00;4997189;28;20041;-78
2023/08/08 04:08:32;;;;;;;8.30;7.45;;;;;;;12.67;87.42;98193.44;4967827;28;20029;-77
2023/08/08 04:10:58;;;;;;;8.32;7.53;;;;;;;12.86;87.00;98216.31;4983618;28;20041;-78
2023/08/08 04:13:23;;;;;;;11.02;7.85;;;;;;;12.64;87.19;98193.94;4966938;28;20053;-78
2023/08/08 04:15:51;;;;;;;8.65;7.82;;;;;;;12.87;86.47;98223.31;4983138;28;20092;-78
2023/08/08 04:18:16;;;;;;;9.60;7.35;;;;;;;12.87;86.92;98217.91;4984716;28;20026;-78
2023/08/08 04:20:42;;;;;;;11.02;7.57;;;;;;;12.89;87.24;98221.19;4999452;28;20052;-77
2023/08/08 04:23:07;;;;;;;8.27;7.43;;;;;;;12.87;87.03;98217.91;4981959;28;20755;-78
2023/08/08 04:25:33;;;;;;;9.50;8.27;;;;;;;12.86;87.20;98219.00;4982707;28;20112;-78
2023/08/08 04:27:58;;;;;;;9.00;7.72;;;;;;;12.66;87.29;98184.53;4983307;28;20037;-79
2023/08/08 04:30:23;;;;;;;8.85;7.95;;;;;;;12.66;87.02;98172.88;4981494;28;20042;-77
2023/08/08 04:32:49;;;;;;;10.55;8.65;;;;;;;12.53;87.27;98159.81;4999216;28;20610;-77
2023/08/08 04:35:14;;;;;;;9.00;8.20;;;;;;;12.81;87.36;98214.34;4995597;28;20087;-76
2023/08/08 04:37:40;;;;;;;11.63;8.25;;;;;;;12.69;86.84;98188.59;4997582;28;20731;-77
2023/08/08 04:40:08;;;;;;;9.07;8.13;;;;;;;12.77;86.56;98198.91;5001935;28;20065;-78
2023/08/08 04:42:33;;;;;;;9.60;7.70;;;;;;;12.90;86.59;98212.00;5016418;28;20026;-77
2023/08/08 04:44:59;;;;;;;9.40;8.35;;;;;;;12.76;87.35;98203.53;4966176;28;20068;-77
2023/08/08 04:47:24;;;;;;;9.43;8.25;;;;;;;12.76;87.35;98183.78;4984039;28;20030;-77
2023/08/08 04:49:49;;;;;;;8.35;7.40;;;;;;;12.99;87.23;98218.56;4983231;28;20084;-77
2023/08/08 04:52:15;;;;;;;7.85;7.15;;;;;;;12.90;86.57;98203.91;4990318;28;20026;-76
2023/08/08 04:54:40;;;;;;;8.50;7.68;;;;;;;13.08;86.53;98217.84;4978656;28;20042;-77
2023/08/08 04:57:06;;;;;;;7.55;6.85;;;;;;;13.06;86.59;98211.91;4978915;28;20451;-77
2023/08/08 04:59:31;;;;;;;8.68;7.45;;;;;;;13.08;86.86;98207.03;5012715;28;20489;-77
2023/08/08 05:01:57;;;;;;;9.55;7.60;;;;;;;13.11;86.66;98211.13;4979931;28;20369;-78
2023/08/08 05:04:22;;;;;;;7.32;6.63;;;;;;;13.05;86.18;98195.88;4984462;28;20041;-78
2023/08/08 05:06:47;;;;;;;7.25;6.30;;;;;;;13.25;86.04;98220.41;4980925;28;20109;-78
2023/08/08 05:09:13;;;;;;;7.80;7.05;;;;;;;13.14;86.72;98208.69;4997670;28;20088;-78
2023/08/08 05:11:38;;;;;;;10.35;6.78;;;;;;;13.14;86.24;98187.06;4980928;28;20022;-78
2023/08/08 05:14:04;;;;;;;7.55;6.07;;;;;;;13.06;85.28;98178.63;4997339;28;20046;-78
2023/08/08 05:16:29;;;;;;;8.40;6.70;;;;;;;13.24;86.19;98215.22;4997507;28;20109;-78
2023/08/08 05:18:54;;;;;;;6.68;6.03;;;;;;;13.20;86.09;98206.84;4981622;28;20068;-78
2023/08/08 05:21:21;;;;;;;7.45;6.07;;;;;;;13.26;86.07;98216.59;5014642;28;20046;-77
2023/08/08 05:23:46;;;;;;;7.22;6.53;;;;;;;13.36;85.86;98211.28;4980173;28;20038;-78
2023/08/08 05:26:12;;;;;;;7.00;6.13;;;;;;;13.41;85.54;98205.91;4996750;28;20518;-78
2023/08/08 05:28:37;;;;;;;6.50;5.90;;;;;;;13.16;85.26;98157.06;4964719;28;20030;-78
2023/08/08 05:31:03;;;;;;;6.68;6.00;;;;;;;13.31;85.78;98170.66;4964243;28;20030;-78
2023/08/08 05:33:28;;;;;;;6.40;5.80;;;;;;;13.45;85.99;98196.16;4996232;28;20404;-78
2023/08/08 05:35:53;;;;;;;8.02;5.18;;;;;;;13.55;85.09;98198.13;4980524;28;20048;-78
2023/08/08 05:38:19;;;;;;;7.75;5.38;;;;;;;13.46;84.91;98165.34;4980869;28;20038;-78
2023/08/08 05:40:44;;;;;;;7.93;5.47;;;;;;;13.90;84.83;98205.56;4980073;28;20040;-77
2023/08/08 05:43:09;;;;;;;6.53;5.13;;;;;;;13.57;84.92;98169.72;4979461;28;20037;-78
2023/08/08 05:45:35;;;;;;;5.32;4.88;;;;;;;13.94;84.34;98212.91;4964607;28;20388;-78
2023/08/08 05:48:00;;;;;;;6.60;5.50;;;;;;;13.88;84.30;98202.31;4981203;28;20038;-78
2023/08/08 05:50:29;;;;;;;7.15;5.47;;;;;;;13.69;84.30;98167.59;4980572;28;20029;-77
2023/08/08 05:52:54;;;;;;;5.75;5.18;;;;;;;13.82;84.05;98199.59;4997139;28;20042;-78
2023/08/08 05:55:19;;;;;;;6.25;5.45;;;;;;;14.03;83.73;98221.31;4999598;28;20116;-78
2023/08/08 05:57:45;;;;;;;5.70;4.97;;;;;;;13.67;83.75;98164.34;4983791;28;20034;-78
2023/08/08 06:00:11;;;;;;;6.25;5.05;;;;;;;14.16;83.93;98210.00;4981405;28;20480;-78
2023/08/08 06:02:39;;;;;;;6.25;4.80;;;;;;;14.18;83.46;98202.41;4996603;28;20038;-77
2023/08/08 06:05:05;;;;;;;8.20;4.40;;;;;;;14.20;83.50;98194.81;4980537;28;20113;-78
2023/08/08 06:07:30;;;;;;;5.28;4.20;;;;;;;14.12;83.33;98160.16;4980757;28;20037;-78
2023/08/08 06:09:56;;;;;;;5.97;4.35;;;;;;;14.55;83.08;98211.19;4980536;28;20542;-78
2023/08/08 06:12:21;;;;;;;6.03;4.07;;;;;;;14.53;82.48;98205.22;4981392;28;20041;-78
2023/08/08 06:14:47;;;;;;;6.95;3.90;;;;;;;14.65;82.39;98200.34;4997170;28;20029;-78
2023/08/08 06:17:12;;;;;;;6.10;3.83;;;;;;;14.77;82.03;98206.31;4997418;28;20072;-78
2023/08/08 06:19:38;;;;;;;4.30;3.88;;;;;;;14.77;81.20;98187.31;4979515;28;20056;-77
2023/08/08 06:22:03;;;;;;;6.82;4.03;;;;;;;14.83;81.23;98182.72;4978175;28;20048;-77
2023/08/08 06:24:28;;;;;;;5.90;3.60;;;;;;;14.89;81.39;98192.50;4981123;28;20034;-78
2023/08/08 06:26:54;;;;;;;5.85;3.88;;;;;;;14.92;81.23;98181.09;4964844;28;20050;-79
2023/08/08 06:29:19;;;;;;;5.05;3.40;;;;;;;14.85;81.60;98167.81;4997034;28;20153;-80
2023/08/08 06:31:45;;;;;;;5.70;3.30;;;;;;;14.98;80.88;98185.44;4996188;28;20037;-80
2023/08/08 06:34:10;;;;;;;5.97;3.40;;;;;;;15.12;81.14;98181.88;4996323;28;20030;-80
2023/08/08 06:36:36;;;;;;;5.05;3.30;;;;;;;15.21;80.88;98180.25;4996844;28;20072;-77
2023/08/08 06:39:01;;;;;;;3.55;3.10;;;;;;;15.31;80.81;98184.03;4980166;28;20033;-79
2023/08/08 06:41:26;;;;;;;6.53;2.92;;;;;;;15.32;79.30;98174.78;4980047;28;20141;-78
2023/08/08 06:43:52;;;;;;;4.38;2.95;;;;;;;15.30;78.76;98160.69;4980192;28;20029;-76
2023/08/08 06:46:20;;;;;;;6.05;3.10;;;;;;;15.38;78.28;98168.28;4978349;28;20451;-77
2023/08/08 06:48:45;;;;;;;3.65;2.70;;;;;;;15.46;77.99;98165.84;5012490;28;20403;-80
2023/08/08 06:51:11;;;;;;;5.80;2.78;;;;;;;15.50;77.57;98166.06;4962742;28;20030;-80
2023/08/08 06:53:36;;;;;;;4.85;2.75;;;;;;;15.73;77.26;98165.44;5012021;28;20477;-80
2023/08/08 06:56:01;;;;;;;7.25;3.25;;;;;;;15.69;76.92;98156.22;4979302;28;20140;-80
2023/08/08 06:58:27;;;;;;;3.22;2.30;;;;;;;15.71;76.95;98173.88;4979151;28;20034;-80
2023/08/08 07:00:52;;;;;;;3.92;2.83;;;;;;;15.95;76.83;98184.91;4995629;28;20045;-80
2023/08/08 07:03:17;;;;;;;2.35;2.15;;;;;;;15.96;76.50;98169.44;4994996;28;20029;-80
2023/08/08 07:05:43;;;;;;;4.78;2.50;;;;;;;16.14;76.40;98177.75;4979321;28;20125;-79
2023/08/08 07:08:08;;;;;;;3.97;2.40;;;;;;;16.12;75.79;98168.25;4978687;28;20077;-80
2023/08/08 07:10:35;;;;;;;3.13;2.58;;;;;;;16.32;75.96;98181.72;4979917;28;20073;-80
2023/08/08 07:13:01;;;;;;;4.38;2.53;;;;;;;16.26;75.04;98174.69;4978694;28;20072;-80
2023/08/08 07:15:27;;;;;;;4.00;2.45;;;;;;;16.40;74.93;98175.69;5012363;28;20042;-80
2023/08/08 07:17:53;;;;;;;4.05;2.40;;;;;;;16.49;73.93;98180.25;4978959;28;20641;-79
2023/08/08 07:20:18;;;;;;;5.05;2.70;;;;;;;16.23;73.21;98181.50;4979099;28;20034;-80
2023/08/08 07:22:43;;;;;;;3.00;2.00;;;;;;;16.26;72.89;98164.63;4981052;28;20036;-79
2023/08/08 07:25:09;;;;;;;3.40;2.13;;;;;;;16.42;73.22;98163.44;5015959;28;20050;-80
2023/08/08 07:27:34;;;;;;;5.68;2.30;;;;;;;16.41;72.45;98156.38;4982032;28;20029;-80
2023/08/08 07:30:01;;;;;;;5.88;2.47;;;;;;;16.46;71.88;98164.50;4998803;28;20484;-80
2023/08/08 07:32:26;;;;;;;4.97;2.30;;;;;;;16.63;71.50;98157.88;4999174;28;20018;-80
2023/08/08 07:34:51;;;;;;;4.47;2.13;;;;;;;16.58;70.76;98175.03;4999272;28;20472;-79
2023/08/08 07:37:17;;;;;;;3.53;2.05;;;;;;;16.48;71.03;98143.28;4999372;28;20021;-80
2023/08/08 07:39:42;;;;;;;3.08;2.10;;;;;;;16.57;70.04;98138.88;4998706;28;20132;-80
2023/08/08 07:42:08;;;;;;;6.07;2.42;;;;;;;16.70;71.12;98152.91;4997844;28;20034;-79
2023/08/08 07:44:35;;;;;;;7.38;2.25;;;;;;;16.80;71.49;98155.56;5019196;28;20453;-77
2023/08/08 07:47:00;;;;;;;8.38;2.42;;;;;;;16.82;71.26;98137.88;4968541;28;20032;-77
2023/08/08 07:49:25;;;;;;;4.18;2.20;;;;;;;16.91;70.36;98138.06;4987284;28;20404;-77
2023/08/08 07:51:51;;;;;;;6.93;2.10;;;;;;;16.88;70.77;98146.78;4981161;28;20120;-77
2023/08/08 07:54:16;;;;;;;5.60;2.22;;;;;;;17.18;70.11;98154.63;4966002;28;20111;-77
2023/08/08 07:56:42;;;;;;;5.43;2.35;;;;;;;17.23;69.46;98117.31;4966345;28;20113;-78
2023/08/08 07:59:09;;;;;;;3.65;2.33;;;;;;;17.45;68.54;98144.03;4982464;28;20476;-77
2023/08/08 08:01:34;;;;;;;2.58;2.10;;;;;;;17.54;68.38;98131.41;4985573;28;20025;-77
2023/08/08 08:04:00;;;;;;;5.28;2.10;;;;;;;17.76;67.93;98142.56;4991073;28;20427;-78
2023/08/08 08:06:25;;;;;;;3.33;1.95;;;;;;;17.65;67.83;98130.19;4981890;28;20392;-77
2023/08/08 08:08:50;;;;;;;3.08;1.92;;;;;;;17.61;66.19;98115.53;4982298;28;20413;-77
2023/08/08 08:11:16;;;;;;;5.25;2.00;;;;;;;17.56;65.75;98121.03;4982272;28;20037;-77
2023/08/08 08:13:42;;;;;;;2.55;1.83;;;;;;;17.44;66.06;98131.50;4998648;28;20037;-77
2023/08/08 08:16:07;;;;;;;5.70;1.77;;;;;;;17.67;66.81;98147.03;4966240;28;20377;-77
2023/08/08 08:18:33;;;;;;;4.65;2.40;;;;;;;17.68;65.83;98142.41;4998426;28;20563;-78
2023/08/08 08:20:59;;;;;;;2.60;1.67;;;;;;;17.70;64.31;98145.66;4982191;28;20543;-78
2023/08/08 08:23:24;;;;;;;3.20;1.70;;;;;;;17.35;65.41;98107.91;4981723;28;20068;-77
2023/08/08 08:25:50;;;;;;;4.22;1.85;;;;;;;17.48;63.53;98146.16;4981977;28;20024;-78
2023/08/08 08:28:15;;;;;;;4.25;1.88;;;;;;;17.37;64.66;98143.81;4998582;28;20387;-77
2023/08/08 08:30:41;;;;;;;2.22;1.70;;;;;;;17.50;63.87;98138.53;4965046;28;20432;-76
2023/08/08 08:33:07;;;;;;;3.58;1.60;;;;;;;17.47;62.55;98120.03;4979683;28;20100;-77
2023/08/08 08:35:34;;;;;;;2.83;1.60;;;;;;;17.56;62.85;98133.84;4996633;28;20535;-77
2023/08/08 08:37:59;;;;;;;6.13;1.60;;;;;;;17.63;63.06;98146.00;4996639;28;20042;-77
2023/08/08 08:40:25;;;;;;;2.40;1.60;;;;;;;17.79;62.96;98112.03;4995901;28;20036;-77
2023/08/08 08:42:50;;;;;;;4.25;1.73;;;;;;;17.83;61.14;98140.28;4978918;28;20045;-77
2023/08/08 08:45:18;;;;;;;3.10;1.40;;;;;;;17.99;59.46;98143.66;4995780;28;20184;-77
2023/08/08 08:47:45;;;;;;;4.75;1.58;;;;;;;17.95;59.74;98154.31;4979465;28;20129;-77
2023/08/08 08:50:11;;;;;;;2.65;1.60;;;;;;;17.79;60.08;98127.56;4979451;28;20032;-77
2023/08/08 08:52:36;;;;;;;2.00;1.35;;;;;;;17.72;61.01;98122.47;4979358;28;20124;-77
2023/08/08 08:55:02;;;;;;;2.03;1.45;;;;;;;17.66;58.92;98133.72;4979420;28;20109;-77
2023/08/08 08:57:28;;;;;;;3.65;1.67;;;;;;;17.67;60.22;98133.41;4979423;28;20586;-77
2023/08/08 08:59:54;;;;;;;3.55;1.50;;;;;;;17.95;60.88;98129.78;4979373;28;20037;-77
2023/08/08 09:02:19;;;;;;;4.50;1.70;;;;;;;18.04;60.06;98138.09;4979250;28;20038;-77
2023/08/08 09:04:45;;;;;;;2.25;1.70;;;;;;;18.10;59.66;98117.03;4995435;28;20067;-76
2023/08/08 09:07:11;;;;;;;3.28;1.90;;;;;;;18.38;57.78;98148.81;4979049;28;20041;-77
2023/08/08 09:09:37;;;;;;;2.75;1.55;;;;;;;18.37;57.87;98134.34;4978772;28;20037;-76
2023/08/08 09:12:04;;;;;;;4.13;1.50;;;;;;;18.13;56.26;98127.38;4979336;28;20030;-77
2023/08/08 09:14:30;;;;;;;4.03;1.48;;;;;;;18.05;57.07;98130.75;4997020;28;20105;-77
2023/08/08 09:16:56;;;;;;;4.07;1.90;;;;;;;17.95;57.17;98110.72;4979078;28;20176;-77
2023/08/08 09:19:22;;;;;;;2.47;1.60;;;;;;;18.32;57.76;98131.69;4995114;28;20022;-77
2023/08/08 09:21:48;;;;;;;4.03;1.50;;;;;;;18.36;55.49;98112.84;4995052;28;20037;-77
2023/08/08 09:24:14;;;;;;;2.67;1.42;;;;;;;18.83;55.88;98137.19;4978659;28;20022;-77
2023/08/08 09:26:40;;;;;;;5.13;1.65;;;;;;;18.76;54.36;98125.88;4961827;28;20042;-77
2023/08/08 09:29:05;;;;;;;3.25;1.42;;;;;;;18.61;54.79;98134.28;5009278;28;20043;-77
2023/08/08 09:31:31;;;;;;;3.78;1.63;;;;;;;18.33;56.79;98110.69;5012377;28;20038;-77
2023/08/08 09:33:58;;;;;;;3.05;1.55;;;;;;;18.55;56.73;98132.75;4994777;28;20040;-77
2023/08/08 09:36:23;;;;;;;2.65;1.50;;;;;;;18.48;54.56;98118.69;4994768;28;20500;-77
2023/08/08 09:38:49;;;;;;;3.40;1.48;;;;;;;18.41;54.81;98129.13;4978546;28;20026;-77
2023/08/08 09:41:14;;;;;;;2.58;1.60;;;;;;;18.34;55.23;98106.88;4978412;28;20033;-77
2023/08/08 09:43:43;;;;;;;1.88;1.50;;;;;;;18.57;53.97;98117.72;4978263;28;20031;-77
2023/08/08 09:46:08;;;;;;;2.47;1.75;;;;;;;18.77;52.25;98111.09;4994438;28;20172;-77
2023/08/08 09:48:35;;;;;;;1.95;1.30;;;;;;;19.06;52.00;98119.88;4996436;28;20117;-77
2023/08/08 09:51:01;;;;;;;3.15;1.50;;;;;;;19.06;51.81;98117.13;4980233;28;20571;-77
2023/08/08 09:53:30;;;;;;;2.47;1.55;;;;;;;18.88;52.12;98107.06;4996015;28;20026;-77
2023/08/08 09:55:56;;;;;;;1.83;1.40;;;;;;;19.14;51.66;98110.97;4979736;28;20045;-77
2023/08/08 09:58:22;;;;;;;3.63;1.65;;;;;;;19.24;53.10;98113.50;4979830;28;20018;-77
2023/08/08 10:00:51;;;;;;;2.10;1.38;;;;;;;19.57;52.79;98108.78;4980091;28;20171;-76
2023/08/08 10:03:17;;;;;;;2.92;1.30;;;;;;;19.72;50.79;98110.41;4995744;28;20025;-77
2023/08/08 10:05:43;;;;;;;4.65;1.60;;;;;;;19.65;52.10;98110.00;4996147;28;20034;-77
2023/08/08 10:08:08;;;;;;;2.33;1.40;;;;;;;19.65;51.56;98082.69;4995993;28;20029;-77
2023/08/08 10:10:34;;;;;;;2.85;1.42;;;;;;;19.99;52.11;98104.88;4997427;28;20046;-78
2023/08/08 10:13:00;;;;;;;2.70;1.58;;;;;;;19.82;49.19;98104.72;4980651;28;20116;-78
2023/08/08 10:15:27;;;;;;;2.35;1.33;;;;;;;19.66;48.91;98067.91;4979340;28;20042;-77
2023/08/08 10:17:57;;;;;;;3.13;1.50;;;;;;;19.98;48.63;98103.25;4980307;28;20076;-77
2023/08/08 10:20:26;;;;;;;2.42;1.45;;;;;;;19.70;47.36;98118.06;4979580;28;20033;-77
2023/08/08 10:22:54;;;;;;;2.55;1.33;;;;;;;19.80;48.05;98098.75;4978341;28;20030;-77
2023/08/08 10:25:24;;;;;;;2.65;1.58;;;;;;;19.97;46.46;98101.66;4980340;28;20053;-77
2023/08/08 10:27:49;;;;;;;2.25;1.38;;;;;;;19.88;48.17;98068.75;4979740;28;20017;-77
2023/08/08 10:30:15;;;;;;;4.00;1.50;;;;;;;19.63;47.36;98050.19;4979829;28;20080;-77
2023/08/08 10:32:43;;;;;;;2.63;1.40;;;;;;;19.99;48.06;98110.34;4963569;28;20492;-78
2023/08/08 10:35:10;;;;;;;2.25;1.60;;;;;;;19.88;49.38;98092.56;4979423;28;20157;-78
2023/08/08 10:37:37;;;;;;;3.22;1.70;;;;;;;20.22;49.04;98109.31;4963726;28;20021;-78
2023/08/08 10:40:07;;;;;;;2.45;1.42;;;;;;;20.29;49.17;98082.34;4996248;28;20059;-78
2023/08/08 10:42:36;;;;;;;2.75;1.50;;;;;;;20.13;47.55;98072.03;4979534;28;20026;-77
2023/08/08 10:45:03;;;;;;;3.83;1.77;;;;;;;19.99;47.19;98104.88;4979674;28;20727;-78
2023/08/08 10:47:34;;;;;;;3.83;1.42;;;;;;;20.05;46.83;98064.59;4980552;28;20037;-78
2023/08/08 10:50:07;;;;;;;1.85;1.50;;;;;;;20.17;47.43;98079.31;4980256;28;20439;-77
2023/08/08 10:52:35;;;;;;;2.40;1.30;;;;;;;19.80;46.91;98047.63;4979834;28;20029;-78
2023/08/08 10:55:02;;;;;;;2.45;1.52;;;;;;;19.93;48.26;98056.91;4980659;28;20468;-77
2023/08/08 10:57:27;;;;;;;2.63;1.48;;;;;;;20.15;46.06;98059.66;4982834;28;20042;-77
2023/08/08 10:59:54;;;;;;;2.85;1.45;;;;;;;20.35;45.48;98069.38;4984520;28;20484;-78
2023/08/08 11:02:20;;;;;;;1.60;1.40;;;;;;;20.30;45.85;98074.94;4999622;28;20092;-78
2023/08/08 11:04:46;;;;;;;3.60;1.42;;;;;;;20.37;43.92;98047.97;4967141;28;20068;-78
2023/08/08 11:07:11;;;;;;;1.80;1.40;;;;;;;20.20;44.77;98084.16;4984022;28;20030;-78
2023/08/08 11:09:37;;;;;;;3.20;1.42;;;;;;;20.16;44.69;98055.84;5017632;28;20647;-77
2023/08/08 11:12:02;;;;;;;2.63;1.63;;;;;;;20.26;45.59;98072.00;4984623;28;20049;-78
2023/08/08 11:14:28;;;;;;;2.38;1.50;;;;;;;20.23;44.73;98060.91;4983954;28;20037;-77
2023/08/08 11:16:54;;;;;;;2.75;1.55;;;;;;;20.09;45.39;98088.25;4983997;28;20061;-77
2023/08/08 11:19:19;;;;;;;2.00;1.40;;;;;;;20.03;44.31;98043.00;4984178;28;20029;-78
2023/08/08 11:21:45;;;;;;;2.35;1.30;;;;;;;19.98;43.79;98048.56;4983836;28;20056;-77
2023/08/08 11:24:12;;;;;;;2.22;1.50;;;;;;;20.49;44.51;98072.84;4984110;28;20033;-78
2023/08/08 11:26:39;;;;;;;3.25;1.60;;;;;;;20.62;44.70;98074.69;4968603;28;20034;-78